Amanda, Ohio
Current Conditions -  °F | °C
As of 4:53 AM on Tuesday 27 Jan 2015 (Local Time) from KLHQ Reporting Station
Haze Haze  
Wind Chill: -16°   Ceiling: Unl
Heat Index: -16°   Visibility: 5mi
Dew Point: -19°   Wind: 0mph
Humidity: 80%   Direction: NA
Pressure: 29.93"   Gusts: NA
Location:  39.65°N, 82.74°W
Report Text: KLHQ 270953Z AUTO 00000KT 5SM HZ CLR M16/M19 A2993 RMK AO2 SLP153 T11611189
Loading
Personal Weather Stations






























Interactive Weather Map New forecast layout! Learn more

10-Day Weather Forecast

Advertisements
Track Severe Weather on mobile